sensor_id;sensor_type;location;lat;lon;timestamp;pressure;altitude;pressure_sealevel;temperature;humidity
35307;BME280;21420;52.196;21.416;2023-03-21T00:00:41;100060.80;;;8.59;61.41
35307;BME280;21420;52.196;21.416;2023-03-21T00:03:08;100057.86;;;8.51;61.38
35307;BME280;21420;52.196;21.416;2023-03-21T00:05:42;100058.63;;;8.45;61.40
35307;BME280;21420;52.196;21.416;2023-03-21T00:08:18;100055.72;;;8.37;61.45
35307;BME280;21420;52.196;21.416;2023-03-21T00:10:46;100054.44;;;8.30;61.51
35307;BME280;21420;52.196;21.416;2023-03-21T00:13:14;100055.39;;;8.25;61.50
35307;BME280;21420;52.196;21.416;2023-03-21T00:15:42;100056.69;;;8.21;61.58
35307;BME280;21420;52.196;21.416;2023-03-21T00:18:45;100053.87;;;8.15;61.63
35307;BME280;21420;52.196;21.416;2023-03-21T00:21:18;100055.08;;;8.10;61.76
35307;BME280;21420;52.196;21.416;2023-03-21T00:24:06;100052.91;;;8.04;61.85
35307;BME280;21420;52.196;21.416;2023-03-21T00:26:33;100050.93;;;8.02;61.72
35307;BME280;21420;52.196;21.416;2023-03-21T00:29:01;100053.20;;;8.02;61.86
35307;BME280;21420;52.196;21.416;2023-03-21T00:31:28;100049.06;;;8.04;61.93
35307;BME280;21420;52.196;21.416;2023-03-21T00:33:55;100046.62;;;8.05;61.99
35307;BME280;21420;52.196;21.416;2023-03-21T00:36:22;100043.25;;;8.05;62.09
35307;BME280;21420;52.196;21.416;2023-03-21T00:38:52;100043.73;;;8.03;62.13
35307;BME280;21420;52.196;21.416;2023-03-21T00:41:19;100043.69;;;8.02;62.10
35307;BME280;21420;52.196;21.416;2023-03-21T00:44:06;100039.07;;;8.00;62.22
35307;BME280;21420;52.196;21.416;2023-03-21T00:46:33;100035.96;;;7.98;62.31
35307;BME280;21420;52.196;21.416;2023-03-21T00:49:12;100039.08;;;7.98;62.32
35307;BME280;21420;52.196;21.416;2023-03-21T00:51:39;100037.88;;;7.98;62.33
35307;BME280;21420;52.196;21.416;2023-03-21T00:54:06;100037.95;;;7.97;62.39
35307;BME280;21420;52.196;21.416;2023-03-21T00:56:33;100036.80;;;7.96;62.49
35307;BME280;21420;52.196;21.416;2023-03-21T00:59:00;100040.30;;;7.96;62.55
35307;BME280;21420;52.196;21.416;2023-03-21T01:01:27;100041.19;;;7.95;62.52
35307;BME280;21420;52.196;21.416;2023-03-21T01:03:58;100040.98;;;7.95;62.59
35307;BME280;21420;52.196;21.416;2023-03-21T01:06:31;100037.38;;;7.95;62.70
35307;BME280;21420;52.196;21.416;2023-03-21T01:09:08;100041.30;;;7.95;62.70
35307;BME280;21420;52.196;21.416;2023-03-21T01:11:37;100039.40;;;7.96;62.72
35307;BME280;21420;52.196;21.416;2023-03-21T01:14:04;100040.39;;;7.96;62.70
35307;BME280;21420;52.196;21.416;2023-03-21T01:16:49;100039.65;;;7.95;62.79
35307;BME280;21420;52.196;21.416;2023-03-21T01:19:19;100041.88;;;7.96;62.85
35307;BME280;21420;52.196;21.416;2023-03-21T01:21:56;100041.52;;;7.97;62.83
35307;BME280;21420;52.196;21.416;2023-03-21T01:24:24;100044.34;;;7.95;62.91
35307;BME280;21420;52.196;21.416;2023-03-21T01:26:51;100043.48;;;7.95;63.00
35307;BME280;21420;52.196;21.416;2023-03-21T01:29:18;100038.36;;;7.96;63.08
35307;BME280;21420;52.196;21.416;2023-03-21T01:31:45;100038.95;;;7.97;62.97
35307;BME280;21420;52.196;21.416;2023-03-21T01:34:13;100039.33;;;7.98;63.01
35307;BME280;21420;52.196;21.416;2023-03-21T01:36:39;100040.32;;;8.00;63.09
35307;BME280;21420;52.196;21.416;2023-03-21T01:39:11;100035.83;;;7.99;63.12
35307;BME280;21420;52.196;21.416;2023-03-21T01:41:40;100033.52;;;7.97;63.09
35307;BME280;21420;52.196;21.416;2023-03-21T01:44:28;100034.55;;;7.96;63.10
35307;BME280;21420;52.196;21.416;2023-03-21T01:46:55;100033.61;;;7.94;63.17
35307;BME280;21420;52.196;21.416;2023-03-21T01:49:46;100033.39;;;7.92;63.18
35307;BME280;21420;52.196;21.416;2023-03-21T01:52:50;100030.30;;;7.91;63.23
35307;BME280;21420;52.196;21.416;2023-03-21T01:55:25;100029.48;;;7.90;63.32
35307;BME280;21420;52.196;21.416;2023-03-21T01:58:02;100026.95;;;7.89;63.49
35307;BME280;21420;52.196;21.416;2023-03-21T02:00:55;100023.86;;;7.89;63.37
35307;BME280;21420;52.196;21.416;2023-03-21T02:03:28;100025.52;;;7.90;63.41
35307;BME280;21420;52.196;21.416;2023-03-21T02:09:17;100027.15;;;7.86;63.47
35307;BME280;21420;52.196;21.416;2023-03-21T02:11:45;100025.81;;;7.84;63.40
35307;BME280;21420;52.196;21.416;2023-03-21T02:14:15;100024.75;;;7.83;63.44
35307;BME280;21420;52.196;21.416;2023-03-21T02:33:51;100022.65;;;7.79;63.78
35307;BME280;21420;52.196;21.416;2023-03-21T02:36:34;100021.43;;;7.87;63.93
35307;BME280;21420;52.196;21.416;2023-03-21T02:39:27;100017.50;;;7.96;63.94
35307;BME280;21420;52.196;21.416;2023-03-21T02:44:47;100016.16;;;8.01;63.91
35307;BME280;21420;52.196;21.416;2023-03-21T02:47:33;100017.65;;;7.98;63.83
35307;BME280;21420;52.196;21.416;2023-03-21T02:50:18;100018.05;;;7.94;63.86
35307;BME280;21420;52.196;21.416;2023-03-21T02:52:48;100019.58;;;7.92;63.91
35307;BME280;21420;52.196;21.416;2023-03-21T02:55:20;100019.63;;;7.90;63.99
35307;BME280;21420;52.196;21.416;2023-03-21T02:57:55;100019.41;;;7.91;63.97
35307;BME280;21420;52.196;21.416;2023-03-21T03:00:27;100018.96;;;7.89;63.98
35307;BME280;21420;52.196;21.416;2023-03-21T03:02:55;100020.63;;;7.89;64.04
35307;BME280;21420;52.196;21.416;2023-03-21T03:05:44;100018.61;;;7.87;64.07
35307;BME280;21420;52.196;21.416;2023-03-21T03:11:45;100024.05;;;7.85;64.12
35307;BME280;21420;52.196;21.416;2023-03-21T03:17:31;100030.80;;;7.82;64.13
35307;BME280;21420;52.196;21.416;2023-03-21T03:20:20;100036.98;;;7.81;64.09
35307;BME280;21420;52.196;21.416;2023-03-21T03:25:49;100034.09;;;7.81;64.33
35307;BME280;21420;52.196;21.416;2023-03-21T03:28:24;100031.62;;;7.81;64.29
35307;BME280;21420;52.196;21.416;2023-03-21T03:30:53;100038.13;;;7.84;64.32
35307;BME280;21420;52.196;21.416;2023-03-21T03:33:45;100035.43;;;7.85;64.35
35307;BME280;21420;52.196;21.416;2023-03-21T03:36:15;100033.85;;;7.86;64.40
35307;BME280;21420;52.196;21.416;2023-03-21T03:39:07;100033.77;;;7.86;64.42
35307;BME280;21420;52.196;21.416;2023-03-21T03:41:49;100037.86;;;7.87;64.45
35307;BME280;21420;52.196;21.416;2023-03-21T03:44:40;100040.59;;;7.85;64.34
35307;BME280;21420;52.196;21.416;2023-03-21T03:47:10;100038.88;;;7.91;64.56
35307;BME280;21420;52.196;21.416;2023-03-21T03:49:51;100035.41;;;7.96;64.65
35307;BME280;21420;52.196;21.416;2023-03-21T03:52:26;100037.84;;;8.04;64.68
35307;BME280;21420;52.196;21.416;2023-03-21T03:55:03;100032.86;;;8.09;64.67
35307;BME280;21420;52.196;21.416;2023-03-21T03:57:33;100036.61;;;8.16;64.71
35307;BME280;21420;52.196;21.416;2023-03-21T04:00:00;100035.73;;;8.15;64.64
35307;BME280;21420;52.196;21.416;2023-03-21T04:02:45;100035.79;;;8.10;64.52
35307;BME280;21420;52.196;21.416;2023-03-21T04:05:16;100034.20;;;8.04;64.51
35307;BME280;21420;52.196;21.416;2023-03-21T04:07:47;100037.30;;;8.00;64.51
35307;BME280;21420;52.196;21.416;2023-03-21T04:10:19;100037.18;;;7.97;64.53
35307;BME280;21420;52.196;21.416;2023-03-21T04:12:48;100033.21;;;7.95;64.42
35307;BME280;21420;52.196;21.416;2023-03-21T04:15:38;100033.67;;;7.91;64.49
35307;BME280;21420;52.196;21.416;2023-03-21T04:18:10;100039.20;;;7.87;64.56
35307;BME280;21420;52.196;21.416;2023-03-21T04:20:37;100042.94;;;7.84;64.54
35307;BME280;21420;52.196;21.416;2023-03-21T04:23:05;100048.09;;;7.82;64.61
35307;BME280;21420;52.196;21.416;2023-03-21T04:25:36;100049.52;;;7.81;64.67
35307;BME280;21420;52.196;21.416;2023-03-21T04:28:16;100049.04;;;7.79;64.65
35307;BME280;21420;52.196;21.416;2023-03-21T04:30:50;100048.02;;;7.79;64.66
35307;BME280;21420;52.196;21.416;2023-03-21T04:33:35;100048.95;;;7.79;64.71
35307;BME280;21420;52.196;21.416;2023-03-21T04:36:06;100047.56;;;7.78;64.71
35307;BME280;21420;52.196;21.416;2023-03-21T04:38:35;100051.42;;;7.75;64.70
35307;BME280;21420;52.196;21.416;2023-03-21T04:41:03;100052.39;;;7.74;64.85
35307;BME280;21420;52.196;21.416;2023-03-21T04:43:30;100053.25;;;7.74;64.83
35307;BME280;21420;52.196;21.416;2023-03-21T04:45:57;100053.73;;;7.74;64.84
35307;BME280;21420;52.196;21.416;2023-03-21T04:48:25;100055.85;;;7.72;64.82
35307;BME280;21420;52.196;21.416;2023-03-21T04:50:53;100052.33;;;7.70;64.86
35307;BME280;21420;52.196;21.416;2023-03-21T04:53:20;100054.55;;;7.69;64.79
35307;BME280;21420;52.196;21.416;2023-03-21T04:55:47;100054.02;;;7.67;64.91
35307;BME280;21420;52.196;21.416;2023-03-21T04:58:19;100055.92;;;7.68;64.97
35307;BME280;21420;52.196;21.416;2023-03-21T05:00:46;100054.16;;;7.67;64.94
35307;BME280;21420;52.196;21.416;2023-03-21T05:03:13;100052.96;;;7.70;65.04
35307;BME280;21420;52.196;21.416;2023-03-21T05:05:46;100052.33;;;7.72;65.02
35307;BME280;21420;52.196;21.416;2023-03-21T05:08:14;100054.73;;;7.72;65.02
35307;BME280;21420;52.196;21.416;2023-03-21T05:10:42;100059.12;;;7.73;65.10
35307;BME280;21420;52.196;21.416;2023-03-21T05:13:09;100059.09;;;7.74;65.00
35307;BME280;21420;52.196;21.416;2023-03-21T05:15:36;100057.54;;;7.76;65.14
35307;BME280;21420;52.196;21.416;2023-03-21T05:18:04;100057.30;;;7.77;65.07
35307;BME280;21420;52.196;21.416;2023-03-21T05:20:38;100059.27;;;7.78;65.03
35307;BME280;21420;52.196;21.416;2023-03-21T05:23:09;100062.58;;;7.79;65.07
35307;BME280;21420;52.196;21.416;2023-03-21T05:25:38;100067.66;;;7.81;65.09
35307;BME280;21420;52.196;21.416;2023-03-21T05:28:16;100067.86;;;7.86;65.11
35307;BME280;21420;52.196;21.416;2023-03-21T05:30:46;100065.27;;;7.89;65.14
35307;BME280;21420;52.196;21.416;2023-03-21T05:33:13;100070.63;;;7.92;65.24
35307;BME280;21420;52.196;21.416;2023-03-21T05:35:41;100071.90;;;7.95;65.31
35307;BME280;21420;52.196;21.416;2023-03-21T05:38:09;100071.81;;;8.02;65.30
35307;BME280;21420;52.196;21.416;2023-03-21T05:40:46;100073.67;;;8.13;65.44
35307;BME280;21420;52.196;21.416;2023-03-21T05:43:13;100074.39;;;8.17;65.33
35307;BME280;21420;52.196;21.416;2023-03-21T05:45:40;100075.77;;;8.23;65.33
35307;BME280;21420;52.196;21.416;2023-03-21T05:48:07;100073.86;;;8.27;65.41
35307;BME280;21420;52.196;21.416;2023-03-21T05:50:46;100075.68;;;8.38;65.28
35307;BME280;21420;52.196;21.416;2023-03-21T05:53:16;100073.08;;;8.46;65.46
35307;BME280;21420;52.196;21.416;2023-03-21T05:55:43;100076.80;;;8.57;65.55
35307;BME280;21420;52.196;21.416;2023-03-21T05:58:16;100078.20;;;8.65;65.34
35307;BME280;21420;52.196;21.416;2023-03-21T06:00:46;100085.39;;;8.82;65.64
35307;BME280;21420;52.196;21.416;2023-03-21T06:03:18;100091.39;;;8.87;65.34
35307;BME280;21420;52.196;21.416;2023-03-21T06:06:07;100093.28;;;8.88;65.31
35307;BME280;21420;52.196;21.416;2023-03-21T06:08:37;100092.35;;;8.92;65.43
35307;BME280;21420;52.196;21.416;2023-03-21T06:11:06;100094.41;;;9.10;65.74
35307;BME280;21420;52.196;21.416;2023-03-21T06:13:38;100096.67;;;9.18;65.48
35307;BME280;21420;52.196;21.416;2023-03-21T06:16:06;100100.14;;;9.19;65.31
35307;BME280;21420;52.196;21.416;2023-03-21T06:18:34;100101.25;;;9.21;65.42
35307;BME280;21420;52.196;21.416;2023-03-21T06:21:13;100100.90;;;9.20;65.20
35307;BME280;21420;52.196;21.416;2023-03-21T06:23:40;100107.25;;;9.17;65.11
35307;BME280;21420;52.196;21.416;2023-03-21T06:26:07;100108.48;;;9.13;65.11
35307;BME280;21420;52.196;21.416;2023-03-21T06:28:35;100106.48;;;9.13;65.10
35307;BME280;21420;52.196;21.416;2023-03-21T06:31:02;100115.29;;;9.11;65.02
35307;BME280;21420;52.196;21.416;2023-03-21T06:33:31;100118.52;;;9.01;64.88
35307;BME280;21420;52.196;21.416;2023-03-21T06:35:58;100121.68;;;8.94;64.87
35307;BME280;21420;52.196;21.416;2023-03-21T06:38:27;100115.71;;;8.87;64.77
35307;BME280;21420;52.196;21.416;2023-03-21T06:40:53;100119.11;;;8.82;64.78
35307;BME280;21420;52.196;21.416;2023-03-21T06:43:22;100118.76;;;8.77;64.83
35307;BME280;21420;52.196;21.416;2023-03-21T06:45:49;100119.80;;;8.74;64.75
35307;BME280;21420;52.196;21.416;2023-03-21T06:48:16;100123.94;;;8.70;64.82
35307;BME280;21420;52.196;21.416;2023-03-21T06:50:48;100124.86;;;8.66;64.72
35307;BME280;21420;52.196;21.416;2023-03-21T06:53:17;100125.57;;;8.62;64.77
35307;BME280;21420;52.196;21.416;2023-03-21T06:56:11;100127.67;;;8.60;64.84
35307;BME280;21420;52.196;21.416;2023-03-21T06:58:39;100127.68;;;8.58;64.88
35307;BME280;21420;52.196;21.416;2023-03-21T07:01:08;100128.05;;;8.58;64.86
35307;BME280;21420;52.196;21.416;2023-03-21T07:03:41;100129.05;;;8.63;65.05
35307;BME280;21420;52.196;21.416;2023-03-21T07:06:10;100127.87;;;8.67;64.95
35307;BME280;21420;52.196;21.416;2023-03-21T07:08:40;100135.51;;;8.67;64.87
35307;BME280;21420;52.196;21.416;2023-03-21T07:11:08;100133.61;;;8.66;64.92
35307;BME280;21420;52.196;21.416;2023-03-21T07:13:35;100133.98;;;8.68;64.90
35307;BME280;21420;52.196;21.416;2023-03-21T07:16:03;100133.21;;;8.70;64.85
35307;BME280;21420;52.196;21.416;2023-03-21T07:18:30;100133.85;;;8.72;64.96
35307;BME280;21420;52.196;21.416;2023-03-21T07:20:57;100131.59;;;8.74;64.98
35307;BME280;21420;52.196;21.416;2023-03-21T07:23:25;100138.45;;;8.78;64.95
35307;BME280;21420;52.196;21.416;2023-03-21T07:25:53;100139.91;;;8.79;64.97
35307;BME280;21420;52.196;21.416;2023-03-21T07:28:21;100142.38;;;8.81;64.87
35307;BME280;21420;52.196;21.416;2023-03-21T07:30:58;100140.29;;;8.81;64.88
35307;BME280;21420;52.196;21.416;2023-03-21T07:33:27;100140.22;;;8.81;64.88
35307;BME280;21420;52.196;21.416;2023-03-21T07:35:57;100143.15;;;8.81;64.84
35307;BME280;21420;52.196;21.416;2023-03-21T07:38:24;100145.45;;;8.80;64.89
35307;BME280;21420;52.196;21.416;2023-03-21T07:40:52;100144.56;;;8.91;65.17
35307;BME280;21420;52.196;21.416;2023-03-21T07:43:20;100145.65;;;9.17;65.53
35307;BME280;21420;52.196;21.416;2023-03-21T07:45:50;100143.84;;;9.37;65.61
35307;BME280;21420;52.196;21.416;2023-03-21T07:48:17;100142.84;;;9.49;65.38
35307;BME280;21420;52.196;21.416;2023-03-21T07:50:45;100145.28;;;9.47;65.06
35307;BME280;21420;52.196;21.416;2023-03-21T07:53:12;100145.36;;;9.45;65.07
35307;BME280;21420;52.196;21.416;2023-03-21T07:55:39;100146.79;;;9.47;65.01
35307;BME280;21420;52.196;21.416;2023-03-21T07:58:06;100149.68;;;9.43;64.87
35307;BME280;21420;52.196;21.416;2023-03-21T08:00:33;100153.71;;;9.44;64.87
35307;BME280;21420;52.196;21.416;2023-03-21T08:03:00;100156.45;;;9.45;64.73
35307;BME280;21420;52.196;21.416;2023-03-21T08:05:32;100159.46;;;9.46;64.81
35307;BME280;21420;52.196;21.416;2023-03-21T08:08:00;100156.38;;;9.45;64.83
35307;BME280;21420;52.196;21.416;2023-03-21T08:10:27;100159.17;;;9.46;65.02
35307;BME280;21420;52.196;21.416;2023-03-21T08:12:54;100158.99;;;9.48;64.86
35307;BME280;21420;52.196;21.416;2023-03-21T08:15:21;100159.83;;;9.49;64.92
35307;BME280;21420;52.196;21.416;2023-03-21T08:17:48;100155.26;;;9.57;64.95
35307;BME280;21420;52.196;21.416;2023-03-21T08:20:17;100155.59;;;9.68;65.02
35307;BME280;21420;52.196;21.416;2023-03-21T08:22:47;100159.79;;;9.76;64.94
35307;BME280;21420;52.196;21.416;2023-03-21T08:25:16;100160.92;;;9.86;64.88
35307;BME280;21420;52.196;21.416;2023-03-21T08:27:45;100158.52;;;10.09;65.14
35307;BME280;21420;52.196;21.416;2023-03-21T08:30:15;100160.16;;;10.34;65.25
35307;BME280;21420;52.196;21.416;2023-03-21T08:32:43;100162.13;;;10.62;65.37
35307;BME280;21420;52.196;21.416;2023-03-21T08:35:12;100163.48;;;10.87;65.22
35307;BME280;21420;52.196;21.416;2023-03-21T08:37:39;100166.80;;;11.10;65.28
35307;BME280;21420;52.196;21.416;2023-03-21T08:40:12;100171.07;;;11.38;65.29
35307;BME280;21420;52.196;21.416;2023-03-21T08:42:41;100167.61;;;11.59;65.21
35307;BME280;21420;52.196;21.416;2023-03-21T08:45:10;100173.48;;;11.67;64.88
35307;BME280;21420;52.196;21.416;2023-03-21T08:47:38;100172.46;;;11.66;64.64
35307;BME280;21420;52.196;21.416;2023-03-21T08:50:07;100173.83;;;11.60;64.24
35307;BME280;21420;52.196;21.416;2023-03-21T08:52:34;100177.58;;;11.46;64.14
35307;BME280;21420;52.196;21.416;2023-03-21T08:55:03;100178.58;;;11.30;63.90
35307;BME280;21420;52.196;21.416;2023-03-21T08:57:30;100179.46;;;11.13;63.87
35307;BME280;21420;52.196;21.416;2023-03-21T08:59:57;100178.56;;;11.09;64.00
35307;BME280;21420;52.196;21.416;2023-03-21T09:02:24;100176.62;;;11.09;64.20
35307;BME280;21420;52.196;21.416;2023-03-21T09:04:51;100179.60;;;11.15;64.21
35307;BME280;21420;52.196;21.416;2023-03-21T09:07:25;100176.14;;;11.24;64.20
35307;BME280;21420;52.196;21.416;2023-03-21T09:09:53;100178.76;;;11.39;64.23
35307;BME280;21420;52.196;21.416;2023-03-21T09:12:40;100179.38;;;11.71;64.47
35307;BME280;21420;52.196;21.416;2023-03-21T09:15:08;100184.43;;;12.14;64.55
35307;BME280;21420;52.196;21.416;2023-03-21T09:17:38;100183.83;;;12.60;64.75
35307;BME280;21420;52.196;21.416;2023-03-21T09:20:12;100185.48;;;12.99;64.51
35307;BME280;21420;52.196;21.416;2023-03-21T09:22:49;100189.36;;;13.24;64.10
35307;BME280;21420;52.196;21.416;2023-03-21T09:25:18;100188.19;;;13.24;63.64
35307;BME280;21420;52.196;21.416;2023-03-21T09:27:46;100192.57;;;13.09;63.31
35307;BME280;21420;52.196;21.416;2023-03-21T09:30:15;100199.86;;;12.99;62.98
35307;BME280;21420;52.196;21.416;2023-03-21T09:32:43;100203.40;;;12.86;62.95
35307;BME280;21420;52.196;21.416;2023-03-21T09:35:19;100205.25;;;12.71;62.72
35307;BME280;21420;52.196;21.416;2023-03-21T09:37:47;100210.47;;;12.61;62.68
35307;BME280;21420;52.196;21.416;2023-03-21T09:46:08;100208.92;;;12.71;62.92
35307;BME280;21420;52.196;21.416;2023-03-21T09:48:59;100207.02;;;12.61;62.61
35307;BME280;21420;52.196;21.416;2023-03-21T09:51:30;100209.71;;;12.41;62.31
35307;BME280;21420;52.196;21.416;2023-03-21T09:54:03;100213.83;;;12.13;62.04
35307;BME280;21420;52.196;21.416;2023-03-21T09:56:35;100215.67;;;11.86;61.97
35307;BME280;21420;52.196;21.416;2023-03-21T09:59:06;100211.38;;;11.66;62.13
35307;BME280;21420;52.196;21.416;2023-03-21T10:01:34;100214.10;;;11.55;62.14
35307;BME280;21420;52.196;21.416;2023-03-21T10:04:11;100214.41;;;11.47;62.31
35307;BME280;21420;52.196;21.416;2023-03-21T10:06:40;100217.50;;;11.38;62.40
35307;BME280;21420;52.196;21.416;2023-03-21T10:09:16;100217.29;;;11.33;62.36
35307;BME280;21420;52.196;21.416;2023-03-21T10:11:50;100216.25;;;11.24;62.24
35307;BME280;21420;52.196;21.416;2023-03-21T10:14:35;100215.35;;;11.18;62.43
35307;BME280;21420;52.196;21.416;2023-03-21T10:17:32;100215.54;;;11.22;62.40
35307;BME280;21420;52.196;21.416;2023-03-21T10:20:42;100216.19;;;11.17;62.32
35307;BME280;21420;52.196;21.416;2023-03-21T10:22:52;100213.61;;;11.15;62.43
35307;BME280;21420;52.196;21.416;2023-03-21T10:25:29;100213.23;;;11.11;62.33
35307;BME280;21420;52.196;21.416;2023-03-21T10:27:58;100217.20;;;11.10;62.29
35307;BME280;21420;52.196;21.416;2023-03-21T10:30:39;100212.38;;;11.08;62.28
35307;BME280;21420;52.196;21.416;2023-03-21T10:33:13;100215.02;;;10.98;62.19
35307;BME280;21420;52.196;21.416;2023-03-21T10:35:44;100216.49;;;10.93;62.28
35307;BME280;21420;52.196;21.416;2023-03-21T10:38:16;100216.88;;;10.95;62.29
35307;BME280;21420;52.196;21.416;2023-03-21T10:40:44;100221.11;;;11.00;62.34
35307;BME280;21420;52.196;21.416;2023-03-21T10:43:19;100223.98;;;11.07;62.33
35307;BME280;21420;52.196;21.416;2023-03-21T10:46:12;100224.57;;;11.15;62.41
35307;BME280;21420;52.196;21.416;2023-03-21T10:48:41;100223.46;;;11.15;62.47
35307;BME280;21420;52.196;21.416;2023-03-21T10:51:19;100223.23;;;11.16;62.25
35307;BME280;21420;52.196;21.416;2023-03-21T10:53:54;100223.34;;;11.16;62.29
35307;BME280;21420;52.196;21.416;2023-03-21T10:56:25;100227.16;;;11.15;62.33
35307;BME280;21420;52.196;21.416;2023-03-21T10:58:58;100224.13;;;11.16;62.28
35307;BME280;21420;52.196;21.416;2023-03-21T11:01:39;100228.73;;;11.11;62.15
35307;BME280;21420;52.196;21.416;2023-03-21T11:04:19;100227.41;;;11.03;62.19
35307;BME280;21420;52.196;21.416;2023-03-21T11:06:58;100220.98;;;10.88;61.84
35307;BME280;21420;52.196;21.416;2023-03-21T11:09:54;100231.09;;;10.73;61.75
35307;BME280;21420;52.196;21.416;2023-03-21T11:12:34;100231.59;;;10.61;61.81
35307;BME280;21420;52.196;21.416;2023-03-21T11:17:53;100231.77;;;10.40;61.78
35307;BME280;21420;52.196;21.416;2023-03-21T11:20:20;100235.98;;;10.32;61.86
35307;BME280;21420;52.196;21.416;2023-03-21T11:22:48;100237.27;;;10.25;61.78
35307;BME280;21420;52.196;21.416;2023-03-21T11:25:22;100237.21;;;10.19;61.98
35307;BME280;21420;52.196;21.416;2023-03-21T11:27:53;100236.19;;;10.15;61.95
35307;BME280;21420;52.196;21.416;2023-03-21T11:30:25;100232.48;;;10.14;62.19
35307;BME280;21420;52.196;21.416;2023-03-21T11:32:59;100230.27;;;10.19;62.38
35307;BME280;21420;52.196;21.416;2023-03-21T11:35:32;100230.52;;;10.22;62.29
35307;BME280;21420;52.196;21.416;2023-03-21T11:38:00;100230.89;;;10.28;62.29
35307;BME280;21420;52.196;21.416;2023-03-21T11:40:32;100227.96;;;10.40;62.47
35307;BME280;21420;52.196;21.416;2023-03-21T11:45:29;100223.87;;;10.67;62.43
35307;BME280;21420;52.196;21.416;2023-03-21T11:47:58;100220.18;;;10.86;62.48
35307;BME280;21420;52.196;21.416;2023-03-21T11:50:33;100221.65;;;11.04;62.76
35307;BME280;21420;52.196;21.416;2023-03-21T11:53:23;100222.52;;;11.35;63.11
35307;BME280;21420;52.196;21.416;2023-03-21T11:56:09;100220.62;;;11.79;63.33
35307;BME280;21420;52.196;21.416;2023-03-21T12:06:34;100215.13;;;13.24;62.55
35307;BME280;21420;52.196;21.416;2023-03-21T12:15:23;100215.05;;;14.08;62.47
35307;BME280;21420;52.196;21.416;2023-03-21T12:23:15;100209.63;;;14.51;61.61
35307;BME280;21420;52.196;21.416;2023-03-21T12:39:36;100199.39;;;13.96;60.71
35307;BME280;21420;52.196;21.416;2023-03-21T12:42:36;100201.21;;;13.73;60.75
35307;BME280;21420;52.196;21.416;2023-03-21T12:45:12;100193.65;;;13.57;60.57
35307;BME280;21420;52.196;21.416;2023-03-21T12:47:44;100192.44;;;13.48;60.63
35307;BME280;21420;52.196;21.416;2023-03-21T12:50:20;100191.70;;;13.47;60.91
35307;BME280;21420;52.196;21.416;2023-03-21T12:52:55;100193.76;;;13.54;60.87
35307;BME280;21420;52.196;21.416;2023-03-21T12:55:27;100189.36;;;13.51;60.66
35307;BME280;21420;52.196;21.416;2023-03-21T12:58:04;100194.17;;;13.37;60.51
35307;BME280;21420;52.196;21.416;2023-03-21T13:00:50;100191.32;;;13.27;60.54
35307;BME280;21420;52.196;21.416;2023-03-21T13:03:23;100191.27;;;13.30;60.57
35307;BME280;21420;52.196;21.416;2023-03-21T13:06:06;100191.73;;;13.30;60.54
35307;BME280;21420;52.196;21.416;2023-03-21T13:11:04;100188.59;;;13.34;60.91
35307;BME280;21420;52.196;21.416;2023-03-21T13:13:42;100184.89;;;13.37;60.54
35307;BME280;21420;52.196;21.416;2023-03-21T13:19:13;100181.73;;;13.50;60.39
35307;BME280;21420;52.196;21.416;2023-03-21T13:29:57;100178.05;;;13.90;60.44
35307;BME280;21420;52.196;21.416;2023-03-21T13:32:33;100178.72;;;14.00;60.29
35307;BME280;21420;52.196;21.416;2023-03-21T13:37:42;100173.91;;;14.21;60.34
35307;BME280;21420;52.196;21.416;2023-03-21T13:40:26;100176.58;;;14.16;60.25
35307;BME280;21420;52.196;21.416;2023-03-21T13:42:58;100178.23;;;14.07;60.09
35307;BME280;21420;52.196;21.416;2023-03-21T13:45:45;100181.94;;;14.00;59.94
35307;BME280;21420;52.196;21.416;2023-03-21T13:48:27;100179.57;;;13.83;59.81
35307;BME280;21420;52.196;21.416;2023-03-21T13:51:03;100181.47;;;13.68;59.86
35307;BME280;21420;52.196;21.416;2023-03-21T13:53:35;100177.83;;;13.52;59.81
35307;BME280;21420;52.196;21.416;2023-03-21T13:58:50;100183.35;;;13.18;59.76
35307;BME280;21420;52.196;21.416;2023-03-21T14:06:36;100186.35;;;12.92;59.90
35307;BME280;21420;52.196;21.416;2023-03-21T14:09:05;100183.92;;;12.92;59.96
35307;BME280;21420;52.196;21.416;2023-03-21T14:11:34;100185.19;;;12.89;59.84
35307;BME280;21420;52.196;21.416;2023-03-21T14:14:04;100187.11;;;12.84;59.59
35307;BME280;21420;52.196;21.416;2023-03-21T14:16:32;100190.73;;;12.65;59.34
35307;BME280;21420;52.196;21.416;2023-03-21T14:19:02;100188.52;;;12.43;59.21
35307;BME280;21420;52.196;21.416;2023-03-21T14:21:32;100195.10;;;12.22;59.11
35307;BME280;21420;52.196;21.416;2023-03-21T14:24:10;100198.50;;;12.06;59.24
35307;BME280;21420;52.196;21.416;2023-03-21T14:26:56;100200.27;;;11.93;59.33
35307;BME280;21420;52.196;21.416;2023-03-21T14:29:34;100196.95;;;11.85;59.34
35307;BME280;21420;52.196;21.416;2023-03-21T14:32:01;100189.34;;;11.77;59.41
35307;BME280;21420;52.196;21.416;2023-03-21T14:34:32;100192.25;;;11.65;59.31
35307;BME280;21420;52.196;21.416;2023-03-21T14:37:01;100191.27;;;11.56;59.38
35307;BME280;21420;52.196;21.416;2023-03-21T14:39:30;100188.90;;;11.50;59.44
35307;BME280;21420;52.196;21.416;2023-03-21T14:42:05;100186.14;;;11.44;59.25
35307;BME280;21420;52.196;21.416;2023-03-21T14:44:47;100187.73;;;11.32;59.46
35307;BME280;21420;52.196;21.416;2023-03-21T14:47:23;100184.06;;;11.38;59.71
35307;BME280;21420;52.196;21.416;2023-03-21T14:49:52;100185.28;;;11.65;60.16
35307;BME280;21420;52.196;21.416;2023-03-21T14:52:33;100183.92;;;12.06;60.48
35307;BME280;21420;52.196;21.416;2023-03-21T14:55:11;100181.75;;;12.55;60.44